sensor_id;sensor_type;location;lat;lon;timestamp;pressure;altitude;pressure_sealevel;temperature;humidity
31096;BME280;17749;51.962;8.560;2023-05-07T05:02:48;100234.09;;;12.24;100.00
31096;BME280;17749;51.962;8.560;2023-05-07T05:05:19;100234.09;;;12.24;100.00
31096;BME280;17749;51.962;8.560;2023-05-07T05:07:48;100234.09;;;12.24;100.00
31096;BME280;17749;51.962;8.560;2023-05-07T05:10:15;100231.13;;;12.31;100.00
31096;BME280;17749;51.962;8.560;2023-05-07T05:12:43;100229.41;;;12.30;100.00
31096;BME280;17749;51.962;8.560;2023-05-07T05:15:12;100237.22;;;12.34;100.00
31096;BME280;17749;51.962;8.560;2023-05-07T05:17:39;100243.28;;;12.38;100.00
31096;BME280;17749;51.962;8.560;2023-05-07T05:20:07;100233.44;;;12.38;100.00
31096;BME280;17749;51.962;8.560;2023-05-07T05:22:38;100243.13;;;12.41;100.00
31096;BME280;17749;51.962;8.560;2023-05-07T05:25:07;100244.06;;;12.40;100.00
31096;BME280;17749;51.962;8.560;2023-05-07T05:27:34;100244.88;;;12.42;100.00
31096;BME280;17749;51.962;8.560;2023-05-07T05:30:04;100240.25;;;12.45;100.00
31096;BME280;17749;51.962;8.560;2023-05-07T05:32:33;100245.44;;;12.48;100.00
31096;BME280;17749;51.962;8.560;2023-05-07T05:35:01;100254.19;;;12.52;100.00
31096;BME280;17749;51.962;8.560;2023-05-07T05:37:29;100247.78;;;12.56;100.00
31096;BME280;17749;51.962;8.560;2023-05-07T05:40:00;100252.06;;;12.60;100.00
31096;BME280;17749;51.962;8.560;2023-05-07T05:42:28;100251.09;;;12.61;100.00
31096;BME280;17749;51.962;8.560;2023-05-07T05:44:55;100243.88;;;12.63;100.00
31096;BME280;17749;51.962;8.560;2023-05-07T05:47:23;100257.00;;;12.68;100.00
31096;BME280;17749;51.962;8.560;2023-05-07T05:49:53;100255.09;;;12.71;100.00
31096;BME280;17749;51.962;8.560;2023-05-07T05:52:20;100252.41;;;12.71;100.00
31096;BME280;17749;51.962;8.560;2023-05-07T05:54:51;100262.09;;;12.74;100.00
31096;BME280;17749;51.962;8.560;2023-05-07T05:57:18;100266.28;;;12.80;100.00
31096;BME280;17749;51.962;8.560;2023-05-07T05:59:46;100267.72;;;12.87;100.00
31096;BME280;17749;51.962;8.560;2023-05-07T06:02:14;100268.88;;;13.00;100.00
31096;BME280;17749;51.962;8.560;2023-05-07T06:04:41;100266.75;;;13.07;100.00
31096;BME280;17749;51.962;8.560;2023-05-07T06:07:12;100269.88;;;13.16;100.00
31096;BME280;17749;51.962;8.560;2023-05-07T06:09:40;100262.50;;;13.22;100.00
31096;BME280;17749;51.962;8.560;2023-05-07T06:12:07;100260.50;;;13.27;100.00
31096;BME280;17749;51.962;8.560;2023-05-07T06:14:35;100270.13;;;13.31;100.00
31096;BME280;17749;51.962;8.560;2023-05-07T06:17:02;100274.22;;;13.38;100.00
31096;BME280;17749;51.962;8.560;2023-05-07T06:19:29;100265.81;;;13.46;100.00
31096;BME280;17749;51.962;8.560;2023-05-07T06:21:57;100269.13;;;13.51;100.00
31096;BME280;17749;51.962;8.560;2023-05-07T06:24:27;100266.06;;;13.58;100.00
31096;BME280;17749;51.962;8.560;2023-05-07T06:26:54;100271.09;;;13.65;100.00
31096;BME280;17749;51.962;8.560;2023-05-07T06:29:22;100273.66;;;13.68;100.00
31096;BME280;17749;51.962;8.560;2023-05-07T06:31:49;100274.56;;;13.67;100.00
31096;BME280;17749;51.962;8.560;2023-05-07T06:34:16;100281.34;;;13.74;100.00
31096;BME280;17749;51.962;8.560;2023-05-07T06:36:43;100285.47;;;13.81;100.00
31096;BME280;17749;51.962;8.560;2023-05-07T06:39:22;100290.50;;;13.87;100.00
31096;BME280;17749;51.962;8.560;2023-05-07T06:41:51;100292.84;;;13.93;100.00
31096;BME280;17749;51.962;8.560;2023-05-07T06:44:25;100294.06;;;14.05;100.00
31096;BME280;17749;51.962;8.560;2023-05-07T06:47:03;100295.22;;;14.17;100.00
31096;BME280;17749;51.962;8.560;2023-05-07T06:49:30;100292.88;;;14.28;100.00
31096;BME280;17749;51.962;8.560;2023-05-07T06:51:58;100295.22;;;14.34;100.00
31096;BME280;17749;51.962;8.560;2023-05-07T06:54:25;100296.00;;;14.36;100.00
31096;BME280;17749;51.962;8.560;2023-05-07T06:56:52;100297.72;;;14.37;100.00
31096;BME280;17749;51.962;8.560;2023-05-07T06:59:19;100300.69;;;14.48;100.00
31096;BME280;17749;51.962;8.560;2023-05-07T07:01:46;100301.22;;;14.57;100.00
31096;BME280;17749;51.962;8.560;2023-05-07T07:04:13;100295.56;;;14.61;100.00
31096;BME280;17749;51.962;8.560;2023-05-07T07:06:43;100293.44;;;14.68;100.00
31096;BME280;17749;51.962;8.560;2023-05-07T07:09:12;100299.72;;;14.67;100.00
31096;BME280;17749;51.962;8.560;2023-05-07T07:11:39;100298.09;;;14.64;100.00
31096;BME280;17749;51.962;8.560;2023-05-07T07:14:08;100305.88;;;14.69;100.00
31096;BME280;17749;51.962;8.560;2023-05-07T07:16:41;100301.53;;;14.84;100.00
31096;BME280;17749;51.962;8.560;2023-05-07T07:19:08;100294.59;;;14.96;100.00
31096;BME280;17749;51.962;8.560;2023-05-07T07:21:35;100293.16;;;15.06;100.00
31096;BME280;17749;51.962;8.560;2023-05-07T07:24:02;100300.34;;;15.21;100.00
31096;BME280;17749;51.962;8.560;2023-05-07T07:26:30;100297.22;;;15.29;100.00
31096;BME280;17749;51.962;8.560;2023-05-07T07:28:57;100303.81;;;15.23;100.00
31096;BME280;17749;51.962;8.560;2023-05-07T07:31:25;100299.41;;;15.22;100.00
31096;BME280;17749;51.962;8.560;2023-05-07T07:33:52;100301.31;;;15.36;100.00
31096;BME280;17749;51.962;8.560;2023-05-07T07:36:19;100305.09;;;15.48;100.00
31096;BME280;17749;51.962;8.560;2023-05-07T07:38:49;100313.91;;;15.50;100.00
31096;BME280;17749;51.962;8.560;2023-05-07T07:41:17;100305.34;;;15.59;100.00
31096;BME280;17749;51.962;8.560;2023-05-07T07:43:44;100305.84;;;15.66;100.00
31096;BME280;17749;51.962;8.560;2023-05-07T07:46:18;100315.66;;;15.67;100.00
31096;BME280;17749;51.962;8.560;2023-05-07T07:48:45;100313.22;;;15.78;100.00
31096;BME280;17749;51.962;8.560;2023-05-07T07:51:11;100314.44;;;15.88;100.00
31096;BME280;17749;51.962;8.560;2023-05-07T07:53:39;100317.41;;;15.98;100.00
31096;BME280;17749;51.962;8.560;2023-05-07T07:56:07;100318.25;;;16.14;100.00
31096;BME280;17749;51.962;8.560;2023-05-07T07:58:34;100314.72;;;16.28;100.00
31096;BME280;17749;51.962;8.560;2023-05-07T08:01:03;100304.28;;;16.38;100.00
31096;BME280;17749;51.962;8.560;2023-05-07T08:03:30;100307.38;;;16.46;100.00
31096;BME280;17749;51.962;8.560;2023-05-07T08:06:00;100307.75;;;16.69;100.00
31096;BME280;17749;51.962;8.560;2023-05-07T08:08:28;100314.69;;;16.73;100.00
31096;BME280;17749;51.962;8.560;2023-05-07T08:10:56;100308.94;;;16.64;100.00
31096;BME280;17749;51.962;8.560;2023-05-07T08:13:28;100306.25;;;16.64;100.00
31096;BME280;17749;51.962;8.560;2023-05-07T08:15:56;100304.91;;;16.72;100.00
31096;BME280;17749;51.962;8.560;2023-05-07T08:18:25;100298.19;;;16.79;100.00
31096;BME280;17749;51.962;8.560;2023-05-07T08:20:53;100301.25;;;16.87;100.00
31096;BME280;17749;51.962;8.560;2023-05-07T08:23:22;100298.00;;;16.82;100.00
31096;BME280;17749;51.962;8.560;2023-05-07T08:25:49;100308.59;;;16.85;100.00
31096;BME280;17749;51.962;8.560;2023-05-07T08:28:18;100312.50;;;16.94;100.00
31096;BME280;17749;51.962;8.560;2023-05-07T08:30:48;100307.22;;;16.92;100.00
31096;BME280;17749;51.962;8.560;2023-05-07T08:33:15;100307.41;;;17.03;100.00
31096;BME280;17749;51.962;8.560;2023-05-07T08:35:41;100310.31;;;17.00;100.00
31096;BME280;17749;51.962;8.560;2023-05-07T08:38:10;100302.03;;;17.03;100.00
31096;BME280;17749;51.962;8.560;2023-05-07T08:40:39;100313.00;;;17.00;100.00
31096;BME280;17749;51.962;8.560;2023-05-07T08:43:13;100322.00;;;16.99;100.00
31096;BME280;17749;51.962;8.560;2023-05-07T08:45:43;100304.88;;;17.15;100.00
31096;BME280;17749;51.962;8.560;2023-05-07T08:48:16;100307.72;;;17.40;100.00
31096;BME280;17749;51.962;8.560;2023-05-07T08:50:49;100314.25;;;17.50;100.00
31096;BME280;17749;51.962;8.560;2023-05-07T08:53:17;100312.69;;;17.61;100.00
31096;BME280;17749;51.962;8.560;2023-05-07T08:55:45;100310.00;;;17.73;100.00
31096;BME280;17749;51.962;8.560;2023-05-07T08:58:14;100312.69;;;17.61;100.00
31096;BME280;17749;51.962;8.560;2023-05-07T09:00:42;100314.59;;;17.59;100.00
31096;BME280;17749;51.962;8.560;2023-05-07T09:03:10;100322.69;;;17.59;100.00
31096;BME280;17749;51.962;8.560;2023-05-07T09:05:44;100323.97;;;17.80;100.00
31096;BME280;17749;51.962;8.560;2023-05-07T09:08:15;100320.59;;;17.77;100.00
31096;BME280;17749;51.962;8.560;2023-05-07T09:10:48;100331.19;;;17.65;100.00
31096;BME280;17749;51.962;8.560;2023-05-07T09:13:17;100325.97;;;17.49;100.00
31096;BME280;17749;51.962;8.560;2023-05-07T09:15:45;100322.75;;;17.57;100.00
31096;BME280;17749;51.962;8.560;2023-05-07T09:18:14;100325.00;;;17.78;100.00
31096;BME280;17749;51.962;8.560;2023-05-07T09:20:44;100328.84;;;17.73;100.00
31096;BME280;17749;51.962;8.560;2023-05-07T09:23:12;100326.38;;;17.85;100.00
31096;BME280;17749;51.962;8.560;2023-05-07T09:25:39;100331.81;;;17.98;100.00
31096;BME280;17749;51.962;8.560;2023-05-07T09:28:13;100323.28;;;18.04;100.00
31096;BME280;17749;51.962;8.560;2023-05-07T09:30:40;100330.81;;;17.99;100.00
31096;BME280;17749;51.962;8.560;2023-05-07T09:33:10;100330.34;;;18.19;100.00
31096;BME280;17749;51.962;8.560;2023-05-07T09:35:40;100331.88;;;18.36;100.00
31096;BME280;17749;51.962;8.560;2023-05-07T09:38:13;100327.34;;;18.62;100.00
31096;BME280;17749;51.962;8.560;2023-05-07T09:40:40;100325.75;;;18.98;100.00
31096;BME280;17749;51.962;8.560;2023-05-07T09:43:13;100314.25;;;19.33;100.00
31096;BME280;17749;51.962;8.560;2023-05-07T09:45:56;100320.56;;;19.57;100.00
31096;BME280;17749;51.962;8.560;2023-05-07T09:48:27;100320.06;;;19.76;100.00
31096;BME280;17749;51.962;8.560;2023-05-07T09:50:55;100312.41;;;19.70;100.00
31096;BME280;17749;51.962;8.560;2023-05-07T09:53:30;100311.63;;;19.81;100.00
31096;BME280;17749;51.962;8.560;2023-05-07T09:56:00;100308.88;;;20.05;100.00
31096;BME280;17749;51.962;8.560;2023-05-07T09:58:31;100305.72;;;20.22;100.00
31096;BME280;17749;51.962;8.560;2023-05-07T10:01:00;100314.75;;;20.34;100.00
31096;BME280;17749;51.962;8.560;2023-05-07T10:03:29;100310.34;;;20.44;100.00
31096;BME280;17749;51.962;8.560;2023-05-07T10:06:04;100306.38;;;20.26;100.00
31096;BME280;17749;51.962;8.560;2023-05-07T10:08:32;100314.22;;;20.18;100.00
31096;BME280;17749;51.962;8.560;2023-05-07T10:11:01;100310.53;;;20.19;100.00
31096;BME280;17749;51.962;8.560;2023-05-07T10:13:30;100310.94;;;20.36;100.00
31096;BME280;17749;51.962;8.560;2023-05-07T10:15:59;100318.13;;;20.49;100.00
31096;BME280;17749;51.962;8.560;2023-05-07T10:18:33;100320.53;;;20.41;100.00
31096;BME280;17749;51.962;8.560;2023-05-07T10:21:17;100319.63;;;20.64;100.00
31096;BME280;17749;51.962;8.560;2023-05-07T10:23:51;100313.84;;;20.69;100.00
31096;BME280;17749;51.962;8.560;2023-05-07T10:26:22;100313.84;;;20.69;100.00
31096;BME280;17749;51.962;8.560;2023-05-07T10:28:54;100319.03;;;20.72;100.00
31096;BME280;17749;51.962;8.560;2023-05-07T10:31:37;100312.16;;;20.68;100.00
31096;BME280;17749;51.962;8.560;2023-05-07T10:34:16;100312.03;;;20.81;100.00
31096;BME280;17749;51.962;8.560;2023-05-07T10:36:45;100315.81;;;20.67;100.00
31096;BME280;17749;51.962;8.560;2023-05-07T10:39:13;100316.69;;;20.67;100.00
31096;BME280;17749;51.962;8.560;2023-05-07T10:41:40;100322.97;;;20.68;100.00
31096;BME280;17749;51.962;8.560;2023-05-07T10:44:09;100322.13;;;20.67;100.00
31096;BME280;17749;51.962;8.560;2023-05-07T10:46:36;100329.84;;;20.72;100.00
31096;BME280;17749;51.962;8.560;2023-05-07T10:49:12;100324.94;;;20.77;100.00
31096;BME280;17749;51.962;8.560;2023-05-07T10:52:22;100323.34;;;20.97;100.00
31096;BME280;17749;51.962;8.560;2023-05-07T10:57:52;100316.06;;;21.09;100.00
31096;BME280;17749;51.962;8.560;2023-05-07T11:03:10;100321.50;;;21.20;100.00
31096;BME280;17749;51.962;8.560;2023-05-07T11:11:56;100316.94;;;21.20;100.00
31096;BME280;17749;51.962;8.560;2023-05-07T11:17:13;100315.47;;;21.39;100.00
31096;BME280;17749;51.962;8.560;2023-05-07T11:19:52;100321.00;;;21.49;100.00
31096;BME280;17749;51.962;8.560;2023-05-07T11:25:09;100312.25;;;21.88;100.00
31096;BME280;17749;51.962;8.560;2023-05-07T11:27:37;100309.78;;;22.18;100.00
31096;BME280;17749;51.962;8.560;2023-05-07T11:30:04;100322.38;;;22.19;99.67
31096;BME280;17749;51.962;8.560;2023-05-07T11:32:31;100318.16;;;22.26;100.00
31096;BME280;17749;51.962;8.560;2023-05-07T11:35:00;100319.09;;;22.36;98.05
31096;BME280;17749;51.962;8.560;2023-05-07T11:37:27;100320.41;;;22.42;96.81
31096;BME280;17749;51.962;8.560;2023-05-07T11:40:08;100325.09;;;22.40;94.37
31096;BME280;17749;51.962;8.560;2023-05-07T11:42:38;100310.88;;;22.47;95.40
31096;BME280;17749;51.962;8.560;2023-05-07T11:45:06;100314.47;;;22.48;94.85
31096;BME280;17749;51.962;8.560;2023-05-07T11:47:34;100326.84;;;22.41;95.95
31096;BME280;17749;51.962;8.560;2023-05-07T11:50:06;100316.44;;;22.25;96.96
31096;BME280;17749;51.962;8.560;2023-05-07T11:52:35;100307.59;;;21.79;97.62
31096;BME280;17749;51.962;8.560;2023-05-07T11:55:02;100319.97;;;21.72;100.00
31096;BME280;17749;51.962;8.560;2023-05-07T11:57:32;100304.34;;;21.53;100.00
31096;BME280;17749;51.962;8.560;2023-05-07T12:00:00;100305.94;;;21.67;100.00
31096;BME280;17749;51.962;8.560;2023-05-07T12:02:40;100309.00;;;21.62;100.00
31096;BME280;17749;51.962;8.560;2023-05-07T12:05:08;100305.97;;;21.44;100.00
31096;BME280;17749;51.962;8.560;2023-05-07T12:07:36;100311.16;;;21.25;100.00
31096;BME280;17749;51.962;8.560;2023-05-07T12:10:07;100314.13;;;20.88;100.00
31096;BME280;17749;51.962;8.560;2023-05-07T12:12:48;100309.53;;;20.66;100.00
31096;BME280;17749;51.962;8.560;2023-05-07T12:15:23;100315.34;;;20.73;100.00
31096;BME280;17749;51.962;8.560;2023-05-07T12:17:52;100314.34;;;20.63;100.00
31096;BME280;17749;51.962;8.560;2023-05-07T12:20:23;100305.72;;;20.80;100.00
31096;BME280;17749;51.962;8.560;2023-05-07T12:22:50;100319.28;;;20.91;100.00
31096;BME280;17749;51.962;8.560;2023-05-07T12:25:19;100305.88;;;20.67;100.00
31096;BME280;17749;51.962;8.560;2023-05-07T12:27:51;100307.91;;;20.52;100.00
31096;BME280;17749;51.962;8.560;2023-05-07T12:30:18;100309.41;;;20.56;100.00
31096;BME280;17749;51.962;8.560;2023-05-07T12:32:45;100307.19;;;20.62;100.00
31096;BME280;17749;51.962;8.560;2023-05-07T12:35:12;100311.41;;;20.77;100.00
31096;BME280;17749;51.962;8.560;2023-05-07T12:37:40;100313.34;;;20.64;100.00
31096;BME280;17749;51.962;8.560;2023-05-07T12:40:09;100314.09;;;20.66;100.00
31096;BME280;17749;51.962;8.560;2023-05-07T12:42:38;100319.25;;;20.69;100.00
31096;BME280;17749;51.962;8.560;2023-05-07T12:45:11;100324.78;;;20.56;100.00
31096;BME280;17749;51.962;8.560;2023-05-07T12:47:39;100332.44;;;20.38;100.00
31096;BME280;17749;51.962;8.560;2023-05-07T12:50:06;100337.41;;;20.44;100.00
31096;BME280;17749;51.962;8.560;2023-05-07T12:52:34;100337.44;;;20.55;100.00
31096;BME280;17749;51.962;8.560;2023-05-07T12:55:05;100326.63;;;20.55;100.00
31096;BME280;17749;51.962;8.560;2023-05-07T12:57:48;100331.59;;;20.73;100.00
31096;BME280;17749;51.962;8.560;2023-05-07T13:00:15;100327.16;;;20.83;100.00
31096;BME280;17749;51.962;8.560;2023-05-07T13:02:43;100332.78;;;20.80;100.00
31096;BME280;17749;51.962;8.560;2023-05-07T13:05:11;100326.91;;;20.86;100.00
31096;BME280;17749;51.962;8.560;2023-05-07T13:07:39;100328.28;;;20.81;100.00
31096;BME280;17749;51.962;8.560;2023-05-07T13:10:07;100332.78;;;20.80;100.00
31096;BME280;17749;51.962;8.560;2023-05-07T13:12:34;100323.44;;;20.62;100.00
31096;BME280;17749;51.962;8.560;2023-05-07T13:15:02;100343.13;;;20.64;100.00
31096;BME280;17749;51.962;8.560;2023-05-07T13:17:29;100336.75;;;20.65;100.00
31096;BME280;17749;51.962;8.560;2023-05-07T13:19:58;100331.84;;;20.70;100.00
31096;BME280;17749;51.962;8.560;2023-05-07T13:22:25;100342.16;;;20.76;100.00
31096;BME280;17749;51.962;8.560;2023-05-07T13:24:52;100340.81;;;20.82;100.00
31096;BME280;17749;51.962;8.560;2023-05-07T13:27:19;100332.09;;;20.89;100.00
31096;BME280;17749;51.962;8.560;2023-05-07T13:29:46;100335.75;;;20.66;100.00
31096;BME280;17749;51.962;8.560;2023-05-07T13:32:13;100337.50;;;20.89;100.00
31096;BME280;17749;51.962;8.560;2023-05-07T13:34:40;100341.81;;;21.03;100.00
31096;BME280;17749;51.962;8.560;2023-05-07T13:37:07;100343.41;;;21.06;100.00
31096;BME280;17749;51.962;8.560;2023-05-07T13:39:37;100350.91;;;20.91;100.00
31096;BME280;17749;51.962;8.560;2023-05-07T13:42:04;100331.84;;;20.70;100.00
31096;BME280;17749;51.962;8.560;2023-05-07T13:44:31;100335.84;;;20.64;100.00
31096;BME280;17749;51.962;8.560;2023-05-07T13:46:58;100338.16;;;20.46;100.00
31096;BME280;17749;51.962;8.560;2023-05-07T13:49:24;100343.94;;;20.53;100.00
31096;BME280;17749;51.962;8.560;2023-05-07T13:51:51;100337.31;;;20.22;100.00
31096;BME280;17749;51.962;8.560;2023-05-07T13:54:18;100339.34;;;20.31;100.00
31096;BME280;17749;51.962;8.560;2023-05-07T13:56:45;100336.59;;;19.96;100.00
31096;BME280;17749;51.962;8.560;2023-05-07T13:59:12;100333.69;;;19.62;100.00
31096;BME280;17749;51.962;8.560;2023-05-07T14:01:41;100330.06;;;19.50;100.00
31096;BME280;17749;51.962;8.560;2023-05-07T14:04:08;100331.09;;;19.36;100.00
31096;BME280;17749;51.962;8.560;2023-05-07T14:06:35;100333.97;;;19.46;100.00
31096;BME280;17749;51.962;8.560;2023-05-07T14:09:02;100326.16;;;19.54;100.00
31096;BME280;17749;51.962;8.560;2023-05-07T14:11:29;100330.16;;;19.48;100.00
31096;BME280;17749;51.962;8.560;2023-05-07T14:13:57;100332.25;;;19.45;100.00
31096;BME280;17749;51.962;8.560;2023-05-07T14:16:25;100318.22;;;19.40;100.00
31096;BME280;17749;51.962;8.560;2023-05-07T14:18:52;100332.47;;;19.42;100.00
31096;BME280;17749;51.962;8.560;2023-05-07T14:21:24;100329.78;;;19.42;100.00
31096;BME280;17749;51.962;8.560;2023-05-07T14:23:51;100329.91;;;19.27;100.00
31096;BME280;17749;51.962;8.560;2023-05-07T14:26:18;100326.81;;;19.21;100.00
31096;BME280;17749;51.962;8.560;2023-05-07T14:28:45;100332.75;;;19.13;100.00
31096;BME280;17749;51.962;8.560;2023-05-07T14:31:13;100340.63;;;19.16;100.00
31096;BME280;17749;51.962;8.560;2023-05-07T14:33:40;100340.84;;;19.13;100.00
31096;BME280;17749;51.962;8.560;2023-05-07T14:36:08;100339.13;;;19.12;100.00
31096;BME280;17749;51.962;8.560;2023-05-07T14:38:35;100332.31;;;19.07;100.00
31096;BME280;17749;51.962;8.560;2023-05-07T14:41:02;100340.97;;;18.99;100.00
31096;BME280;17749;51.962;8.560;2023-05-07T14:43:29;100332.47;;;18.92;100.00
31096;BME280;17749;51.962;8.560;2023-05-07T14:45:56;100325.00;;;18.83;100.00
31096;BME280;17749;51.962;8.560;2023-05-07T14:48:23;100338.09;;;18.76;100.00
31096;BME280;17749;51.962;8.560;2023-05-07T14:50:49;100338.09;;;18.76;100.00
31096;BME280;17749;51.962;8.560;2023-05-07T14:53:16;100334.53;;;18.76;100.00
31096;BME280;17749;51.962;8.560;2023-05-07T14:55:43;100340.56;;;18.79;100.00
31096;BME280;17749;51.962;8.560;2023-05-07T14:58:11;100336.03;;;18.80;100.00
31096;BME280;17749;51.962;8.560;2023-05-07T15:00:38;100343.56;;;18.88;100.00
31096;BME280;17749;51.962;8.560;2023-05-07T15:03:07;100332.34;;;18.94;100.00
31096;BME280;17749;51.962;8.560;2023-05-07T15:05:35;100341.41;;;19.05;100.00
31096;BME280;17749;51.962;8.560;2023-05-07T15:08:02;100342.72;;;19.00;100.00
31096;BME280;17749;51.962;8.560;2023-05-07T15:10:29;100343.34;;;18.91;100.00
31096;BME280;17749;51.962;8.560;2023-05-07T15:12:56;100352.16;;;18.67;100.00
31096;BME280;17749;51.962;8.560;2023-05-07T15:15:23;100350.00;;;18.59;100.00
31096;BME280;17749;51.962;8.560;2023-05-07T15:17:52;100353.06;;;18.55;100.00
31096;BME280;17749;51.962;8.560;2023-05-07T15:20:19;100358.22;;;18.58;100.00
31096;BME280;17749;51.962;8.560;2023-05-07T15:22:46;100356.47;;;18.57;100.00
31096;BME280;17749;51.962;8.560;2023-05-07T15:25:13;100361.66;;;18.47;100.00
31096;BME280;17749;51.962;8.560;2023-05-07T15:27:41;100351.84;;;18.46;100.00
31096;BME280;17749;51.962;8.560;2023-05-07T15:30:08;100352.50;;;18.50;100.00
31096;BME280;17749;51.962;8.560;2023-05-07T15:32:37;100351.75;;;18.48;100.00
31096;BME280;17749;51.962;8.560;2023-05-07T15:35:05;100350.22;;;18.44;100.00
31096;BME280;17749;51.962;8.560;2023-05-07T15:37:32;100353.66;;;18.46;100.00
31096;BME280;17749;51.962;8.560;2023-05-07T15:39:59;100358.84;;;18.49;100.00
31096;BME280;17749;51.962;8.560;2023-05-07T15:42:28;100353.44;;;18.36;100.00
31096;BME280;17749;51.962;8.560;2023-05-07T15:44:56;100355.19;;;18.37;100.00
31096;BME280;17749;51.962;8.560;2023-05-07T15:47:23;100360.22;;;18.42;100.00
31096;BME280;17749;51.962;8.560;2023-05-07T15:49:50;100357.09;;;18.35;100.00
31096;BME280;17749;51.962;8.560;2023-05-07T15:52:17;100351.25;;;18.28;100.00
31096;BME280;17749;51.962;8.560;2023-05-07T15:54:44;100352.66;;;18.21;100.00
31096;BME280;17749;51.962;8.560;2023-05-07T15:57:11;100350.84;;;18.22;100.00
31096;BME280;17749;51.962;8.560;2023-05-07T15:59:38;100353.41;;;18.23;100.00
31096;BME280;17749;51.962;8.560;2023-05-07T16:02:05;100345.84;;;18.15;100.00
31096;BME280;17749;51.962;8.560;2023-05-07T16:04:33;100347.88;;;18.12;100.00
31096;BME280;17749;51.962;8.560;2023-05-07T16:07:00;100352.00;;;18.17;100.00
31096;BME280;17749;51.962;8.560;2023-05-07T16:09:27;100346.50;;;18.19;100.00
31096;BME280;17749;51.962;8.560;2023-05-07T16:11:55;100353.81;;;18.17;100.00
31096;BME280;17749;51.962;8.560;2023-05-07T16:14:22;100348.22;;;18.20;100.00
31096;BME280;17749;51.962;8.560;2023-05-07T16:16:49;100355.31;;;18.08;100.00
31096;BME280;17749;51.962;8.560;2023-05-07T16:19:18;100358.97;;;18.07;100.00
31096;BME280;17749;51.962;8.560;2023-05-07T16:21:45;100367.19;;;18.06;100.00
31096;BME280;17749;51.962;8.560;2023-05-07T16:24:13;100367.19;;;18.06;100.00
31096;BME280;17749;51.962;8.560;2023-05-07T16:26:41;100365.13;;;18.09;100.00
31096;BME280;17749;51.962;8.560;2023-05-07T16:29:08;100368.47;;;18.13;100.00
31096;BME280;17749;51.962;8.560;2023-05-07T16:31:35;100370.00;;;18.17;100.00
31096;BME280;17749;51.962;8.560;2023-05-07T16:34:03;100363.97;;;18.13;100.00
31096;BME280;17749;51.962;8.560;2023-05-07T16:36:30;100368.47;;;18.13;100.00
31096;BME280;17749;51.962;8.560;2023-05-07T16:38:57;100381.81;;;18.02;100.00
31096;BME280;17749;51.962;8.560;2023-05-07T16:41:24;100378.16;;;18.03;100.00
31096;BME280;17749;51.962;8.560;2023-05-07T16:43:51;100378.47;;;17.98;100.00
31096;BME280;17749;51.962;8.560;2023-05-07T16:46:18;100370.13;;;17.88;100.00
31096;BME280;17749;51.962;8.560;2023-05-07T16:48:45;100366.66;;;17.86;100.00
31096;BME280;17749;51.962;8.560;2023-05-07T16:51:12;100367.84;;;17.82;100.00
31096;BME280;17749;51.962;8.560;2023-05-07T16:53:39;100368.97;;;17.78;100.00
31096;BME280;17749;51.962;8.560;2023-05-07T16:56:06;100372.63;;;17.77;100.00
31096;BME280;17749;51.962;8.560;2023-05-07T16:58:33;100370.75;;;17.79;100.00
31096;BME280;17749;51.962;8.560;2023-05-07T17:01:00;100366.13;;;17.67;100.00
31096;BME280;17749;51.962;8.560;2023-05-07T17:03:28;100361.16;;;17.61;100.00
31096;BME280;17749;51.962;8.560;2023-05-07T17:05:55;100359.41;;;17.60;100.00
31096;BME280;17749;51.962;8.560;2023-05-07T17:08:22;100363.44;;;17.52;100.00
31096;BME280;17749;51.962;8.560;2023-05-07T17:10:49;100362.13;;;17.45;100.00
31096;BME280;17749;51.962;8.560;2023-05-07T17:13:16;100363.28;;;17.41;100.00
31096;BME280;17749;51.962;8.560;2023-05-07T17:15:43;100356.47;;;17.36;100.00
31096;BME280;17749;51.962;8.560;2023-05-07T17:18:12;100368.50;;;17.30;100.00
31096;BME280;17749;51.962;8.560;2023-05-07T17:20:39;100368.91;;;17.24;100.00
31096;BME280;17749;51.962;8.560;2023-05-07T17:23:07;100369.66;;;17.12;100.00
31096;BME280;17749;51.962;8.560;2023-05-07T17:25:34;100372.19;;;17.00;100.00
31096;BME280;17749;51.962;8.560;2023-05-07T17:28:01;100378.50;;;16.99;100.00
31096;BME280;17749;51.962;8.560;2023-05-07T17:30:29;100376.97;;;16.95;100.00
31096;BME280;17749;51.962;8.560;2023-05-07T17:32:56;100385.59;;;16.86;100.00
31096;BME280;17749;51.962;8.560;2023-05-07T17:35:32;100387.91;;;16.78;100.00
31096;BME280;17749;51.962;8.560;2023-05-07T17:38:01;100389.97;;;16.73;100.00
31096;BME280;17749;51.962;8.560;2023-05-07T17:40:28;100394.00;;;16.65;100.00
31096;BME280;17749;51.962;8.560;2023-05-07T17:42:55;100394.19;;;16.62;100.00
31096;BME280;17749;51.962;8.560;2023-05-07T17:45:25;100389.66;;;16.63;100.00
31096;BME280;17749;51.962;8.560;2023-05-07T17:47:52;100397.06;;;16.59;100.00
31096;BME280;17749;51.962;8.560;2023-05-07T17:50:19;100410.31;;;16.62;100.00
31096;BME280;17749;51.962;8.560;2023-05-07T17:52:47;100412.41;;;16.57;100.00
31096;BME280;17749;51.962;8.560;2023-05-07T17:55:14;100411.81;;;16.52;100.00
31096;BME280;17749;51.962;8.560;2023-05-07T17:57:41;100423.03;;;16.44;100.00
31096;BME280;17749;51.962;8.560;2023-05-07T18:00:08;100432.94;;;16.44;100.00
31096;BME280;17749;51.962;8.560;2023-05-07T18:02:36;100433.13;;;16.41;100.00
31096;BME280;17749;51.962;8.560;2023-05-07T18:05:04;100431.91;;;16.31;100.00
31096;BME280;17749;51.962;8.560;2023-05-07T18:07:31;100434.09;;;16.24;100.00